This is the latest recevied weather packets stored in our database for station/object KF4PPJ. If no packets are shown the sender has not sent any weather packets the latest 10 day(s).
| Time | Temp. | Humidity | Pressure | Rain* | Wind** | Luminosity | Snow |
|---|---|---|---|---|---|---|---|
| 1777767648 | 25° C | 45% | 1015.6 hPa | 0 mm | - | 396 W/m² | - |
| 1777766132 | 24.44° C | 45% | 1015.9 hPa | 0 mm | - | 430 W/m² | - |
| 1777761889 | 25° C | 45% | 1016.7 hPa | 0 mm | - | 524 W/m² | - |
| 1777761284 | 23.89° C | 47% | 1016.8 hPa | 0 mm | - | 559 W/m² | - |
| 1777760981 | 23.89° C | 48% | 1016.9 hPa | 0 mm | - | 570 W/m² | - |
| 1777760679 | 23.33° C | 50% | 1017 hPa | 0 mm | - | 570 W/m² | - |
| 1777760374 | 23.33° C | 50% | 1017.2 hPa | 0 mm | - | 514 W/m² | - |
| 1777760071 | 23.89° C | 51% | 1017.2 hPa | 0 mm | - | 615 W/m² | - |
| 1777759768 | 23.33° C | 55% | 1017 hPa | 0 mm | - | 652 W/m² | - |
| 1777759463 | 23.33° C | 52% | 1017 hPa | 0 mm | - | 631 W/m² | - |
| 1777759160 | 23.33° C | 52% | 1017.3 hPa | 0 mm | - | 534 W/m² | - |
| 1777758858 | 23.33° C | 52% | 1017.2 hPa | 0 mm | - | 531 W/m² | - |
| 1777757949 | 22.78° C | 53% | 1017.5 hPa | 0 mm | - | 575 W/m² | - |
| 1777757645 | 22.78° C | 54% | 1017.1 hPa | 0 mm | - | 563 W/m² | - |
| 1777757043 | 22.22° C | 55% | 1017.4 hPa | 0 mm | - | 609 W/m² | - |
| 1777756739 | 22.78° C | 53% | 1017.5 hPa | 0 mm | - | 580 W/m² | - |
| 1777756137 | 22.78° C | 55% | 1017.7 hPa | 0 mm | - | 501 W/m² | - |
| 1777755532 | 22.22° C | 55% | 1017.7 hPa | 0 mm | - | 638 W/m² | - |
| 1777754925 | 22.78° C | 53% | 1017.9 hPa | 0 mm | - | 672 W/m² | - |
| 1777754319 | 22.22° C | 56% | 1018 hPa | 0 mm | - | 691 W/m² | - |
| 1777753713 | 21.67° C | 56% | 1017.8 hPa | 0 mm | - | 665 W/m² | - |
| 1777752804 | 21.67° C | 57% | 1018.3 hPa | 0 mm | - | 600 W/m² | - |
| 1777751895 | 20.56° C | 60% | 1018.2 hPa | 0 mm | - | 727 W/m² | - |
| 1777750378 | 19.44° C | 64% | 1018.7 hPa | 0 mm | - | 691 W/m² | - |
| 1777750077 | 17.78° C | 69% | 1018.6 hPa | 0 mm | - | 675 W/m² | - |
* Rain latest hour (hover to see other rain measurements)
** Current wind speed in m/s (hover to see current wind gust speed)